Time;durP1;ratioP1;P1;durP2;ratioP2;P2;SDS_P1;SDS_P2;PMS_P1;PMS_P2;Temp;Humidity;BMP_temperature;BMP_pressure;BME280_temperature;BME280_humidity;BME280_pressure;Samples;Min_cycle;Max_cycle;Signal;HPM_P1;HPM_P2
2022/10/03 00:01:30;;;;;;;19.38;5.97;;;;;;;9.39;100.00;102439.50;4995010;28;20045;-67
2022/10/03 00:04:17;;;;;;;27.92;5.63;;;;;;;9.36;100.00;102439.59;4992322;28;20712;-68
2022/10/03 00:07:26;;;;;;;22.80;6.15;;;;;;;9.34;100.00;102442.34;4985383;28;20125;-67
2022/10/03 00:09:58;;;;;;;22.73;6.43;;;;;;;9.28;100.00;102447.81;5000762;28;20107;-68
2022/10/03 00:12:41;;;;;;;18.17;5.22;;;;;;;9.31;100.00;102451.28;4992144;28;20504;-68
2022/10/03 00:15:37;;;;;;;17.60;5.85;;;;;;;9.25;100.00;102446.16;4984479;28;20050;-68
2022/10/03 00:18:37;;;;;;;19.65;5.63;;;;;;;9.27;100.00;102449.63;4999877;28;20038;-68
2022/10/03 00:21:24;;;;;;;23.30;5.78;;;;;;;9.30;100.00;102449.53;4996314;28;20037;-67
2022/10/03 00:24:23;;;;;;;18.40;5.68;;;;;;;9.30;100.00;102452.19;4999417;28;20112;-68
2022/10/03 00:27:02;;;;;;;20.23;5.85;;;;;;;9.33;100.00;102460.06;5000652;28;20469;-68
2022/10/03 00:29:59;;;;;;;17.58;5.60;;;;;;;9.31;100.00;102461.91;5035648;28;20088;-67
2022/10/03 00:32:58;;;;;;;23.17;7.00;;;;;;;9.25;100.00;102463.91;5053680;28;20041;-68
2022/10/03 00:35:40;;;;;;;24.05;6.97;;;;;;;9.17;100.00;102461.47;5037200;28;20140;-68
2022/10/03 00:38:06;;;;;;;25.05;5.93;;;;;;;9.17;100.00;102458.81;5062287;28;20060;-68
2022/10/03 00:41:14;;;;;;;24.38;6.05;;;;;;;9.18;100.00;102463.22;5062041;28;20040;-68
2022/10/03 00:44:00;;;;;;;19.95;5.50;;;;;;;9.18;100.00;102459.69;4980653;28;20129;-66
2022/10/03 00:46:53;;;;;;;23.98;5.55;;;;;;;9.16;100.00;102459.75;4980559;28;20044;-68
2022/10/03 00:49:36;;;;;;;;;;;;;;;9.18;100.00;102467.66;4975009;28;20069;-67
2022/10/03 00:52:21;;;;;;;26.58;6.05;;;;;;;9.17;100.00;102474.78;4979522;28;19928;-68
2022/10/03 00:54:55;;;;;;;21.27;5.78;;;;;;;9.14;100.00;102471.38;4980646;28;20050;-68
2022/10/03 00:57:29;;;;;;;37.67;6.72;;;;;;;9.09;100.00;102471.50;4980306;28;20058;-67
2022/10/03 01:00:12;;;;;;;20.55;5.05;;;;;;;9.08;100.00;102477.72;4975999;28;20064;-68
2022/10/03 01:02:45;;;;;;;25.85;6.30;;;;;;;9.07;100.00;102481.31;4980590;28;20046;-67
2022/10/03 01:05:45;;;;;;;23.10;6.70;;;;;;;9.06;100.00;102482.25;4980442;28;20069;-67
2022/10/03 01:08:37;;;;;;;21.65;6.07;;;;;;;9.00;100.00;102477.97;4974119;28;20870;-68
2022/10/03 01:11:05;;;;;;;27.95;5.90;;;;;;;9.04;100.00;102479.63;4963692;28;21002;-68
2022/10/03 01:13:55;;;;;;;22.13;5.15;;;;;;;8.96;100.00;102486.97;4980225;28;20057;-68
2022/10/03 01:16:30;;;;;;;21.50;6.65;;;;;;;9.02;100.00;102484.13;4958572;28;20038;-67
2022/10/03 01:19:23;;;;;;;21.67;6.20;;;;;;;8.92;100.00;102484.44;4980701;28;20077;-68
2022/10/03 01:22:13;;;;;;;23.00;6.22;;;;;;;8.93;100.00;102487.03;5043975;28;20044;-67
2022/10/03 01:25:05;;;;;;;20.15;6.22;;;;;;;8.95;100.00;102487.03;5060798;28;20028;-67
2022/10/03 01:30:46;;;;;;;22.10;5.70;;;;;;;8.87;100.00;102489.03;5057467;28;20426;-67
2022/10/03 01:33:36;;;;;;;23.10;5.45;;;;;;;8.88;100.00;102499.63;5060489;28;20061;-68
2022/10/03 01:36:20;;;;;;;25.88;6.70;;;;;;;8.82;100.00;102497.16;5042461;28;20052;-68
2022/10/03 01:38:59;;;;;;;24.25;6.80;;;;;;;8.79;100.00;102502.56;5060629;28;20086;-68
2022/10/03 01:41:46;;;;;;;24.15;5.78;;;;;;;8.85;100.00;102498.84;5060700;28;20041;-66
2022/10/03 01:44:23;;;;;;;20.38;6.43;;;;;;;8.87;100.00;102513.84;5060764;28;20044;-67
2022/10/03 01:47:23;;;;;;;43.35;9.60;;;;;;;8.85;100.00;102506.84;5041696;28;20037;-67
2022/10/03 01:50:01;;;;;;;21.70;6.35;;;;;;;8.85;100.00;102515.69;5058548;28;20481;-68
2022/10/03 01:52:51;;;;;;;24.60;6.18;;;;;;;8.77;100.00;102513.22;5055222;28;20039;-68
2022/10/03 01:55:29;;;;;;;25.63;7.25;;;;;;;8.68;100.00;102518.81;5059271;28;20036;-68
2022/10/03 01:58:18;;;;;;;25.83;6.80;;;;;;;8.62;100.00;102518.13;5054780;28;20872;-67
2022/10/03 02:00:55;;;;;;;19.05;6.03;;;;;;;8.64;100.00;102513.66;5059750;28;20040;-67
2022/10/03 02:03:34;;;;;;;21.25;6.35;;;;;;;8.69;100.00;102507.28;5040967;28;20075;-68
2022/10/03 02:06:23;;;;;;;24.13;6.28;;;;;;;8.63;100.00;102514.53;5059099;28;20040;-66
2022/10/03 02:09:03;;;;;;;17.80;6.75;;;;;;;8.58;100.00;102517.31;5053186;28;20040;-68
2022/10/03 02:11:39;;;;;;;24.10;6.15;;;;;;;8.56;100.00;102525.34;5049623;28;20041;-66
2022/10/03 02:14:26;;;;;;;18.13;6.13;;;;;;;8.49;100.00;102514.94;5060213;28;20611;-67
2022/10/03 02:17:02;;;;;;;28.38;7.15;;;;;;;8.70;100.00;102517.00;5059825;28;20037;-68
2022/10/03 02:19:50;;;;;;;21.38;7.18;;;;;;;8.73;100.00;102519.56;5056115;28;20040;-68
2022/10/03 02:22:28;;;;;;;21.42;7.10;;;;;;;8.71;100.00;102508.09;5047662;28;20860;-68
2022/10/03 02:25:26;;;;;;;19.52;7.70;;;;;;;8.62;100.00;102520.78;5059915;28;20097;-68
2022/10/03 02:28:16;;;;;;;19.17;7.32;;;;;;;8.59;100.00;102526.22;5036963;28;20061;-68
2022/10/03 02:31:05;;;;;;;17.90;6.35;;;;;;;8.49;100.00;102521.13;5035362;28;20040;-68
2022/10/03 02:33:34;;;;;;;31.42;7.75;;;;;;;8.37;100.00;102524.13;5055709;28;20047;-68
2022/10/03 02:36:35;;;;;;;18.38;7.35;;;;;;;8.40;100.00;102528.50;5055661;28;20048;-67
2022/10/03 02:39:19;;;;;;;31.30;8.57;;;;;;;8.30;100.00;102523.38;5057735;28;20032;-68
2022/10/03 02:41:54;;;;;;;18.63;7.22;;;;;;;8.40;100.00;102524.03;5054884;28;20207;-69
2022/10/03 02:44:38;;;;;;;27.92;7.85;;;;;;;8.45;100.00;102521.25;5050153;28;20044;-67
2022/10/03 02:47:22;;;;;;;22.83;7.57;;;;;;;8.41;100.00;102524.91;5041321;28;20044;-67
2022/10/03 02:50:18;;;;;;;21.65;7.88;;;;;;;8.30;100.00;102520.72;5047028;28;20047;-68
2022/10/03 02:52:52;;;;;;;29.92;8.30;;;;;;;8.28;100.00;102527.88;5052930;28;20083;-68
2022/10/03 02:55:53;;;;;;;21.98;8.82;;;;;;;8.22;100.00;102522.72;5053133;28;20047;-67
2022/10/03 02:58:25;;;;;;;33.90;8.52;;;;;;;8.25;100.00;102532.41;5008318;28;20075;-68
2022/10/03 03:01:08;;;;;;;17.70;7.32;;;;;;;8.40;100.00;102533.81;5053463;28;20567;-67
2022/10/03 03:03:55;;;;;;;33.30;10.02;;;;;;;8.22;100.00;102530.69;5058680;28;20580;-68
2022/10/03 03:06:40;;;;;;;23.65;8.23;;;;;;;8.31;100.00;102532.22;5040647;28;20048;-66
2022/10/03 03:09:44;;;;;;;27.73;8.57;;;;;;;8.32;100.00;102528.66;5054865;28;20063;-67
2022/10/03 03:12:49;;;;;;;32.75;8.32;;;;;;;8.28;100.00;102532.28;5050167;28;20239;-68
2022/10/03 03:15:43;;;;;;;26.88;8.18;;;;;;;8.21;100.00;102533.38;5058042;28;20048;-67
2022/10/03 03:18:15;;;;;;;27.30;8.73;;;;;;;8.21;100.00;102528.06;5055220;28;20109;-68
2022/10/03 03:20:55;;;;;;;24.80;8.83;;;;;;;8.18;100.00;102530.78;5053550;28;20144;-68
2022/10/03 03:23:54;;;;;;;31.70;9.20;;;;;;;8.13;100.00;102528.25;5059283;28;20119;-67
2022/10/03 03:26:32;;;;;;;22.88;9.57;;;;;;;8.26;100.00;102526.16;5056720;28;20047;-68
2022/10/03 03:29:09;;;;;;;20.42;8.13;;;;;;;8.27;100.00;102533.22;5019069;28;20052;-67
2022/10/03 03:31:53;;;;;;;16.42;7.82;;;;;;;8.35;100.00;102536.56;5038245;28;20040;-67
2022/10/03 03:34:28;;;;;;;24.92;8.90;;;;;;;8.27;100.00;102539.41;5052119;28;20044;-67
2022/10/03 03:37:13;;;;;;;30.55;9.90;;;;;;;8.27;100.00;102533.22;5058664;28;20036;-67
2022/10/03 03:40:04;;;;;;;33.05;10.88;;;;;;;8.28;100.00;102534.94;5053823;28;20047;-67
2022/10/03 03:42:47;;;;;;;30.83;9.85;;;;;;;8.25;100.00;102535.94;5060703;28;20035;-67
2022/10/03 03:45:18;;;;;;;21.88;8.65;;;;;;;8.30;100.00;102535.81;5059069;28;20033;-66
2022/10/03 03:48:21;;;;;;;22.30;9.23;;;;;;;8.18;100.00;102537.00;5036706;28;20139;-67
2022/10/03 03:50:55;;;;;;;;;;;;;;;8.17;100.00;102542.34;5041755;28;20803;-68
2022/10/03 03:53:21;;;;;;;30.13;9.10;;;;;;;8.17;100.00;102537.91;5059490;28;19920;-67
2022/10/03 03:56:05;;;;;;;27.90;10.25;;;;;;;8.09;100.00;102541.69;5058491;28;20890;-68
2022/10/03 03:58:40;;;;;;;24.17;10.00;;;;;;;8.08;100.00;102548.75;5039976;28;20033;-67
2022/10/03 04:01:19;;;;;;;28.73;9.88;;;;;;;7.98;100.00;102541.94;5058624;28;20044;-67
2022/10/03 04:04:12;;;;;;;27.02;9.88;;;;;;;8.01;100.00;102542.75;5053370;28;20143;-67
2022/10/03 04:07:07;;;;;;;31.13;10.48;;;;;;;8.05;100.00;102540.88;5059274;28;20059;-68
2022/10/03 04:09:54;;;;;;;23.88;9.23;;;;;;;8.01;100.00;102552.50;5059241;28;20032;-66
2022/10/03 04:12:47;;;;;;;20.48;9.00;;;;;;;8.08;100.00;102542.56;5056231;28;20036;-67
2022/10/03 04:15:46;;;;;;;34.10;9.57;;;;;;;7.97;100.00;102543.72;5052635;28;20041;-67
2022/10/03 04:21:39;;;;;;;22.27;9.20;;;;;;;8.02;100.00;102547.13;5055345;28;20146;-67
2022/10/03 04:24:37;;;;;;;34.83;10.27;;;;;;;7.93;100.00;102551.81;5059024;28;20068;-67
2022/10/03 04:27:40;;;;;;;29.15;9.45;;;;;;;7.88;100.00;102551.03;5057848;28;20052;-67
2022/10/03 04:30:15;;;;;;;20.45;10.20;;;;;;;7.87;100.00;102547.50;5056504;28;20805;-67
2022/10/03 04:32:48;;;;;;;20.48;9.73;;;;;;;7.78;100.00;102550.38;5058863;28;20047;-67
2022/10/03 04:35:55;;;;;;;26.88;9.77;;;;;;;7.71;100.00;102552.34;5056744;28;20114;-68
2022/10/03 04:38:44;;;;;;;28.77;8.95;;;;;;;7.74;100.00;102549.63;5050316;28;20040;-67
2022/10/03 04:41:32;;;;;;;24.27;9.68;;;;;;;7.71;100.00;102549.69;5044542;28;20123;-67
2022/10/03 04:44:10;;;;;;;23.17;8.73;;;;;;;7.68;100.00;102548.88;5038256;28;20106;-68
2022/10/03 04:47:06;;;;;;;25.98;10.23;;;;;;;7.62;100.00;102544.59;5058704;28;20498;-68
2022/10/03 04:49:38;;;;;;;28.10;9.55;;;;;;;7.66;100.00;102548.03;5038596;28;20326;-67
2022/10/03 04:52:36;;;;;;;28.85;9.90;;;;;;;7.60;100.00;102546.41;5058169;28;20127;-66
2022/10/03 04:55:37;;;;;;;23.85;8.90;;;;;;;7.58;100.00;102553.56;4994277;28;20184;-67
2022/10/03 04:58:47;;;;;;;24.45;8.25;;;;;;;7.43;100.00;102554.78;4988221;28;20061;-66
2022/10/03 05:01:21;;;;;;;17.67;9.57;;;;;;;7.46;100.00;102565.31;4919665;29;20104;-67
2022/10/03 05:03:56;;;;;;;20.20;9.75;;;;;;;7.46;100.00;102560.00;4907596;29;20107;-72
2022/10/03 05:06:46;;;;;;;26.85;9.15;;;;;;;7.45;100.00;102568.88;4922862;29;20151;-72
2022/10/03 05:09:18;;;;;;;25.85;9.40;;;;;;;7.53;100.00;102571.38;4905320;29;20104;-68
2022/10/03 05:12:11;;;;;;;29.75;11.70;;;;;;;7.63;100.00;102578.22;4916112;29;20059;-69
2022/10/03 05:14:48;;;;;;;20.98;9.25;;;;;;;7.63;100.00;102579.97;4921205;29;21000;-69
2022/10/03 05:17:32;;;;;;;30.05;9.68;;;;;;;7.66;100.00;102585.22;4921188;29;20277;-69
2022/10/03 05:20:35;;;;;;;36.42;10.30;;;;;;;7.78;100.00;102583.16;4921545;29;20753;-69
2022/10/03 05:23:18;;;;;;;29.65;10.43;;;;;;;7.98;100.00;102581.78;4920851;29;20052;-69
2022/10/03 05:26:01;;;;;;;29.23;9.50;;;;;;;8.00;100.00;102586.16;4913074;29;20831;-68
2022/10/03 05:28:58;;;;;;;33.75;10.20;;;;;;;8.02;100.00;102588.78;4918440;29;20327;-68
2022/10/03 05:31:48;;;;;;;35.40;10.43;;;;;;;8.14;100.00;102588.47;4934801;28;20577;-68
2022/10/03 05:34:43;;;;;;;25.17;10.75;;;;;;;8.10;100.00;102588.59;4977813;28;20834;-68
2022/10/03 05:37:44;;;;;;;28.42;11.02;;;;;;;8.22;100.00;102589.13;5016189;28;20052;-69
2022/10/03 05:40:23;;;;;;;28.67;9.30;;;;;;;8.36;100.00;102590.59;5020046;28;20499;-68
2022/10/03 05:42:48;;;;;;;27.52;9.68;;;;;;;8.38;100.00;102591.44;5058322;28;20117;-66
2022/10/03 05:45:38;;;;;;;28.63;10.85;;;;;;;8.41;100.00;102589.59;5058319;28;20599;-69
2022/10/03 05:48:16;;;;;;;32.17;10.23;;;;;;;8.44;100.00;102594.81;5056719;28;20032;-67
2022/10/03 05:51:10;;;;;;;27.17;10.00;;;;;;;8.43;100.00;102593.06;5060316;28;20409;-67
2022/10/03 05:54:00;;;;;;;23.20;10.10;;;;;;;8.33;100.00;102594.19;5059629;28;20098;-68
2022/10/03 05:57:12;;;;;;;26.67;9.90;;;;;;;8.35;100.00;102595.03;5050201;28;20033;-68
2022/10/03 05:59:55;;;;;;;25.25;9.40;;;;;;;8.33;100.00;102599.50;5037942;28;20052;-68
2022/10/03 06:02:42;;;;;;;32.40;9.20;;;;;;;8.43;100.00;102597.50;5055850;28;20058;-68
2022/10/03 06:05:14;;;;;;;29.55;10.38;;;;;;;8.56;100.00;102593.63;5060700;28;20083;-67
2022/10/03 06:08:01;;;;;;;24.65;9.32;;;;;;;8.63;100.00;102599.63;5059030;28;20102;-68
2022/10/03 06:10:49;;;;;;;29.80;10.18;;;;;;;8.74;100.00;102598.44;5058436;28;20036;-68
2022/10/03 06:13:29;;;;;;;23.38;10.05;;;;;;;8.74;100.00;102606.44;5055927;28;20116;-69
2022/10/03 06:16:21;;;;;;;21.38;9.15;;;;;;;8.97;100.00;102607.56;5059902;28;20522;-68
2022/10/03 06:19:12;;;;;;;27.50;9.85;;;;;;;9.11;100.00;102604.50;5053748;28;21642;-68
2022/10/03 06:21:52;;;;;;;24.80;9.98;;;;;;;9.20;100.00;102607.78;5058126;28;20127;-68
2022/10/03 06:24:41;;;;;;;28.70;10.90;;;;;;;9.41;100.00;102603.59;5037781;28;20152;-68
2022/10/03 06:27:38;;;;;;;36.78;11.35;;;;;;;9.55;100.00;102613.84;5057841;28;20079;-67
2022/10/03 06:30:20;;;;;;;35.53;9.88;;;;;;;9.48;100.00;102622.94;5058677;28;20032;-68
2022/10/03 06:33:10;;;;;;;29.67;10.82;;;;;;;9.56;100.00;102621.78;5054767;28;20037;-68
2022/10/03 06:36:07;;;;;;;24.05;9.60;;;;;;;9.43;100.00;102623.06;5058251;28;20040;-67
2022/10/03 06:39:14;;;;;;;26.00;10.75;;;;;;;9.63;100.00;102624.25;5052818;28;20045;-68
2022/10/03 06:42:05;;;;;;;30.45;8.85;;;;;;;9.78;100.00;102615.78;5055684;28;20607;-68
2022/10/03 06:44:53;;;;;;;21.77;9.40;;;;;;;10.30;100.00;102622.13;4989019;28;20113;-68
2022/10/03 06:47:40;;;;;;;21.98;9.10;;;;;;;9.93;100.00;102625.09;5053868;28;20032;-69
2022/10/03 06:50:18;;;;;;;18.80;9.52;;;;;;;10.16;100.00;102627.00;5056269;28;20094;-69
2022/10/03 06:53:06;;;;;;;22.88;9.23;;;;;;;10.40;100.00;102628.03;5035448;28;20037;-69
2022/10/03 06:55:53;;;;;;;19.10;9.48;;;;;;;10.78;100.00;102632.88;5038259;28;20032;-69
2022/10/03 06:58:51;;;;;;;27.80;9.00;;;;;;;11.10;100.00;102618.41;5053329;28;20039;-68
2022/10/03 07:01:43;;;;;;;22.67;9.63;;;;;;;11.64;100.00;102622.53;5050043;28;20049;-68
2022/10/03 07:04:45;;;;;;;17.15;8.55;;;;;;;11.70;100.00;102624.13;5054091;28;20512;-68
2022/10/03 07:07:32;;;;;;;17.42;7.32;;;;;;;11.95;100.00;102618.69;5055708;28;20462;-69
2022/10/03 07:10:31;;;;;;;17.27;7.53;;;;;;;11.94;100.00;102616.94;5054355;28;20139;-69
2022/10/03 07:13:15;;;;;;;16.10;7.25;;;;;;;11.98;100.00;102620.38;5056219;28;20675;-69
2022/10/03 07:16:34;;;;;;;17.20;7.05;;;;;;;12.16;100.00;102627.63;5051904;28;20040;-68
2022/10/03 07:19:12;;;;;;;18.45;7.95;;;;;;;12.22;100.00;102629.19;4958077;28;20046;-68
2022/10/03 07:22:19;;;;;;;17.90;6.93;;;;;;;12.28;100.00;102629.78;4941013;28;20224;-69
2022/10/03 07:24:44;;;;;;;16.85;7.03;;;;;;;12.41;100.00;102639.06;4954490;28;20050;-68
2022/10/03 07:27:26;;;;;;;19.67;7.07;;;;;;;12.66;100.00;102630.84;4958247;28;20098;-68
2022/10/03 07:30:09;;;;;;;16.75;7.28;;;;;;;12.50;100.00;102634.22;4957324;28;20057;-67
2022/10/03 07:32:53;;;;;;;28.33;8.75;;;;;;;12.73;100.00;102639.47;4952684;28;20046;-68
2022/10/03 07:38:58;;;;;;;16.05;5.97;;;;;;;13.52;100.00;102639.53;4955971;28;20039;-69
2022/10/03 07:41:37;;;;;;;16.88;7.00;;;;;;;13.36;100.00;102639.38;4928566;29;20050;-67
2022/10/03 07:44:39;;;;;;;11.85;5.72;;;;;;;13.72;100.00;102636.78;4919436;29;20056;-68
2022/10/03 07:47:45;;;;;;;11.63;5.70;;;;;;;13.52;100.00;102643.06;4919340;29;20058;-69
2022/10/03 07:50:19;;;;;;;14.43;5.75;;;;;;;13.87;100.00;102648.56;4916370;29;20054;-68
2022/10/03 07:53:14;;;;;;;16.92;5.95;;;;;;;13.73;100.00;102652.78;4938452;28;20258;-69
2022/10/03 07:56:16;;;;;;;17.85;6.35;;;;;;;13.58;100.00;102658.00;4994655;28;20050;-69
2022/10/03 07:58:51;;;;;;;19.90;5.28;;;;;;;13.26;100.00;102659.50;4915329;29;20128;-68
2022/10/03 08:01:31;;;;;;;14.32;5.25;;;;;;;13.61;100.00;102665.91;4919148;29;20059;-69
2022/10/03 08:03:57;;;;;;;10.27;5.47;;;;;;;13.42;100.00;102671.25;4917024;29;20051;-67
2022/10/03 08:06:37;;;;;;;14.20;4.88;;;;;;;13.29;100.00;102676.28;4898026;29;20420;-67
2022/10/03 08:09:36;;;;;;;21.73;5.82;;;;;;;13.34;100.00;102674.25;4919369;29;20583;-67
2022/10/03 08:12:30;;;;;;;17.45;5.80;;;;;;;13.37;100.00;102678.63;4918719;29;20059;-69
2022/10/03 08:15:21;;;;;;;13.02;5.53;;;;;;;13.54;100.00;102680.53;4902756;29;20051;-70
2022/10/03 08:18:00;;;;;;;16.40;5.10;;;;;;;13.59;100.00;102679.34;4937139;29;20062;-68
2022/10/03 08:20:41;;;;;;;18.60;5.53;;;;;;;13.89;100.00;102674.34;4936280;29;20115;-68
2022/10/03 08:23:32;;;;;;;16.67;5.78;;;;;;;13.77;100.00;102674.97;4934797;29;20119;-69
2022/10/03 08:26:03;;;;;;;15.27;6.03;;;;;;;14.11;100.00;102681.41;4939234;29;21139;-69
2022/10/03 08:28:29;;;;;;;15.82;6.10;;;;;;;14.00;100.00;102684.56;4938694;29;20091;-68
2022/10/03 08:31:16;;;;;;;16.00;4.40;;;;;;;14.14;100.00;102682.09;4939799;29;20117;-68
2022/10/03 08:33:54;;;;;;;12.00;5.28;;;;;;;14.58;100.00;102680.88;4965453;28;20049;-69
2022/10/03 08:36:41;;;;;;;8.73;4.43;;;;;;;14.50;100.00;102675.88;5038166;28;20064;-67
2022/10/03 08:39:25;;;;;;;16.13;5.35;;;;;;;14.72;100.00;102672.97;5053963;28;20582;-70
2022/10/03 08:42:18;;;;;;;13.73;4.13;;;;;;;14.80;99.88;102672.56;5061717;28;20596;-69
2022/10/03 08:45:00;;;;;;;15.57;5.35;;;;;;;15.06;98.93;102676.56;5042476;28;20068;-68
2022/10/03 08:48:03;;;;;;;12.27;4.22;;;;;;;14.70;98.19;102678.41;5058811;28;20397;-68
2022/10/03 08:50:39;;;;;;;14.95;4.82;;;;;;;15.00;98.02;102681.31;5061156;28;20066;-69
2022/10/03 08:53:17;;;;;;;11.02;3.92;;;;;;;14.85;100.00;102684.81;5060541;28;20049;-68
2022/10/03 08:56:08;;;;;;;13.27;4.40;;;;;;;14.96;99.83;102673.50;5057673;28;20047;-69
2022/10/03 08:58:36;;;;;;;19.90;4.35;;;;;;;14.89;100.00;102680.16;5050144;28;20071;-68
2022/10/03 09:01:31;;;;;;;15.32;3.83;;;;;;;15.02;100.00;102682.13;5042784;28;20067;-69
2022/10/03 09:04:19;;;;;;;13.73;3.33;;;;;;;15.28;99.07;102683.41;5050174;28;20052;-69
2022/10/03 09:06:51;;;;;;;20.88;4.47;;;;;;;15.32;100.00;102681.44;5058968;28;20481;-69
2022/10/03 09:09:45;;;;;;;11.52;4.20;;;;;;;15.28;98.43;102677.19;5055931;28;20037;-69
2022/10/03 09:12:30;;;;;;;11.77;4.35;;;;;;;15.42;96.57;102680.00;5054488;28;20128;-70
2022/10/03 09:15:14;;;;;;;16.30;4.45;;;;;;;15.47;99.43;102674.38;5036934;28;20029;-69
2022/10/03 09:17:45;;;;;;;9.23;4.18;;;;;;;15.76;96.10;102665.59;5055098;28;20044;-68
2022/10/03 09:20:44;;;;;;;7.53;3.13;;;;;;;16.02;92.30;102663.25;5057794;28;20068;-68
2022/10/03 09:23:25;;;;;;;7.25;2.72;;;;;;;15.86;94.45;102660.53;5057324;28;20036;-69
2022/10/03 09:26:32;;;;;;;13.38;2.65;;;;;;;16.02;93.12;102669.50;5056201;28;20572;-68
2022/10/03 09:29:07;;;;;;;9.35;2.33;;;;;;;16.39;89.27;102658.41;5019456;28;20047;-69
2022/10/03 09:31:51;;;;;;;14.27;3.05;;;;;;;16.45;88.68;102666.13;5057386;28;20906;-70
2022/10/03 09:34:40;;;;;;;7.30;3.10;;;;;;;16.64;89.75;102664.06;5035040;28;20029;-68
2022/10/03 09:37:33;;;;;;;8.80;2.95;;;;;;;16.99;85.71;102653.88;5053795;28;20604;-69
2022/10/03 09:40:21;;;;;;;5.70;2.22;;;;;;;16.66;86.55;102648.69;5060420;28;20041;-68
2022/10/03 09:43:05;;;;;;;7.32;1.70;;;;;;;16.31;83.95;102642.69;5005966;28;20056;-68
2022/10/03 09:46:15;;;;;;;9.15;2.30;;;;;;;16.73;84.00;102642.00;5047674;28;20064;-67
2022/10/03 09:49:31;;;;;;;8.68;2.63;;;;;;;16.50;84.04;102643.34;5055236;28;20917;-69
2022/10/03 09:51:56;;;;;;;7.40;2.03;;;;;;;16.99;82.11;102636.84;5051618;28;20695;-70
2022/10/03 09:54:28;;;;;;;8.48;1.83;;;;;;;17.31;80.87;102633.00;5038588;28;20047;-68
2022/10/03 09:57:18;;;;;;;4.00;0.90;;;;;;;17.57;74.45;102630.47;5055835;28;20036;-69
2022/10/03 10:00:05;;;;;;;16.23;1.58;;;;;;;17.75;73.38;102631.16;5057716;28;20123;-68
2022/10/03 10:03:11;;;;;;;10.60;2.03;;;;;;;17.56;72.07;102628.75;5058892;28;20059;-70
2022/10/03 10:06:00;;;;;;;9.20;1.88;;;;;;;17.39;78.00;102632.53;5033838;28;20040;-69
2022/10/03 10:08:50;;;;;;;10.27;1.77;;;;;;;17.01;81.18;102634.91;5053305;28;20052;-70
2022/10/03 10:11:46;;;;;;;4.72;1.10;;;;;;;16.35;82.00;102633.47;5055530;28;20028;-68
2022/10/03 10:14:25;;;;;;;8.10;1.02;;;;;;;16.81;79.01;102626.22;5031332;28;20089;-69
2022/10/03 10:17:04;;;;;;;11.25;2.17;;;;;;;17.29;77.86;102621.44;5054050;28;20045;-67
2022/10/03 10:20:03;;;;;;;11.20;1.67;;;;;;;17.44;79.74;102618.75;5056296;28;20404;-69
2022/10/03 10:22:50;;;;;;;5.53;1.65;;;;;;;17.09;79.27;102614.63;5024175;28;20060;-70
2022/10/03 10:25:35;;;;;;;6.03;1.52;;;;;;;17.27;80.63;102619.81;5055707;28;20472;-69
2022/10/03 10:28:15;;;;;;;4.75;1.75;;;;;;;17.48;82.12;102615.75;5029875;28;20378;-68
2022/10/03 10:31:01;;;;;;;11.05;1.80;;;;;;;18.00;75.13;102622.31;5054093;28;20060;-67
2022/10/03 10:33:47;;;;;;;12.10;2.60;;;;;;;17.86;77.85;102623.22;5048376;28;20033;-69
2022/10/03 10:36:31;;;;;;;4.45;1.20;;;;;;;18.00;73.74;102622.31;5036552;28;20603;-69
2022/10/03 10:39:21;;;;;;;8.38;1.25;;;;;;;17.76;74.19;102624.78;5049800;28;20041;-69
2022/10/03 10:42:02;;;;;;;8.85;1.45;;;;;;;18.18;73.86;102617.53;5032931;28;20798;-69
2022/10/03 10:45:01;;;;;;;13.32;2.20;;;;;;;18.00;75.41;102617.78;5056033;28;20033;-70
2022/10/03 10:47:44;;;;;;;5.75;1.30;;;;;;;18.11;72.40;102620.63;5057586;28;20371;-69
2022/10/03 10:50:18;;;;;;;5.07;1.50;;;;;;;17.95;73.69;102628.00;5047533;28;20033;-67
2022/10/03 10:53:08;;;;;;;5.60;1.30;;;;;;;18.32;73.61;102620.13;5059620;28;20036;-69
2022/10/03 10:56:03;;;;;;;5.20;1.83;;;;;;;18.32;73.00;102625.53;5058891;28;20024;-69
2022/10/03 10:58:44;;;;;;;8.57;1.63;;;;;;;18.32;72.54;102622.84;5055517;28;20045;-70
2022/10/03 11:01:34;;;;;;;6.95;1.38;;;;;;;18.66;71.96;102613.28;5056904;28;20094;-70
2022/10/03 11:04:18;;;;;;;5.70;1.80;;;;;;;18.09;75.60;102625.25;5053563;28;20048;-68
2022/10/03 11:07:10;;;;;;;6.80;1.73;;;;;;;17.88;76.32;102626.69;5058444;28;20767;-70
2022/10/03 11:10:09;;;;;;;;;;;;;;;17.69;75.69;102626.13;5059803;28;20123;-68
2022/10/03 11:13:13;;;;;;;6.95;1.95;;;;;;;17.90;79.46;102632.84;5054266;28;19920;-69
2022/10/03 11:15:58;;;;;;;11.27;2.45;;;;;;;18.15;75.67;102623.13;5055093;28;20040;-70
2022/10/03 11:18:41;;;;;;;4.90;1.50;;;;;;;18.08;76.63;102623.53;5055658;28;20044;-70
2022/10/03 11:21:19;;;;;;;6.78;1.38;;;;;;;18.31;75.05;102629.22;5053125;28;20060;-67
2022/10/03 11:24:06;;;;;;;5.72;1.60;;;;;;;18.38;75.71;102628.72;5055930;28;20128;-70
2022/10/03 11:27:09;;;;;;;6.68;1.27;;;;;;;18.74;77.15;102616.38;5055954;28;20044;-69
2022/10/03 11:30:06;;;;;;;10.48;1.73;;;;;;;18.73;74.56;102628.16;5055444;28;20036;-70
2022/10/03 11:33:00;;;;;;;9.45;2.50;;;;;;;18.69;73.69;102623.06;4995636;28;20096;-69
2022/10/03 11:35:51;;;;;;;8.60;1.80;;;;;;;19.13;75.50;102630.78;4990554;28;20049;-70
2022/10/03 11:38:36;;;;;;;9.57;1.50;;;;;;;18.79;74.44;102621.47;4992843;28;20054;-68
2022/10/03 11:41:16;;;;;;;8.15;2.03;;;;;;;19.22;76.81;102610.28;4994379;28;20095;-70
2022/10/03 11:44:03;;;;;;;14.98;1.80;;;;;;;18.94;73.91;102614.13;4994685;28;20111;-69
2022/10/03 11:46:34;;;;;;;10.70;2.17;;;;;;;18.83;75.34;102613.03;4995853;28;20091;-69
2022/10/03 11:49:36;;;;;;;12.02;1.75;;;;;;;18.34;74.99;102608.28;4977988;28;20038;-68
2022/10/03 11:52:21;;;;;;;4.57;1.85;;;;;;;18.64;74.69;102613.41;4988130;28;20100;-70
2022/10/03 11:54:49;;;;;;;4.25;1.50;;;;;;;18.43;73.26;102611.34;4987891;28;20046;-69
2022/10/03 11:57:26;;;;;;;18.65;2.50;;;;;;;18.03;75.08;102603.22;4992970;28;20241;-69
2022/10/03 12:00:16;;;;;;;8.18;1.67;;;;;;;17.99;75.32;102615.19;4997144;28;20050;-69
2022/10/03 12:02:58;;;;;;;6.82;1.83;;;;;;;18.03;76.80;102612.19;4999369;28;20137;-69
2022/10/03 12:05:51;;;;;;;8.68;2.03;;;;;;;17.94;74.30;102606.53;4997493;28;20294;-69
2022/10/03 12:08:55;;;;;;;2.42;1.70;;;;;;;18.24;74.64;102600.91;4999785;28;20173;-68
2022/10/03 12:11:32;;;;;;;6.20;1.85;;;;;;;18.46;74.34;102603.00;5057838;28;20681;-68
2022/10/03 12:14:06;;;;;;;10.05;1.92;;;;;;;18.49;73.23;102603.66;5024521;28;20083;-69
2022/10/03 12:17:09;;;;;;;14.95;1.70;;;;;;;18.40;75.09;102612.41;5062429;28;20109;-68
2022/10/03 12:19:52;;;;;;;;;;;;;;;18.61;72.78;102608.22;5055450;28;20029;-68
2022/10/03 12:22:50;;;;;;;8.48;1.58;;;;;;;18.60;73.47;102606.47;5062562;28;19927;-68
2022/10/03 12:25:33;;;;;;;8.82;1.90;;;;;;;18.32;73.16;102601.22;5058618;28;20048;-69
2022/10/03 12:28:19;;;;;;;9.00;1.90;;;;;;;18.00;73.33;102601.56;5061210;28;20143;-69
2022/10/03 12:30:47;;;;;;;7.22;1.90;;;;;;;17.98;75.74;102600.81;5060062;28;20028;-70
2022/10/03 12:33:40;;;;;;;12.52;1.88;;;;;;;18.25;74.04;102599.94;5061172;28;20052;-67
2022/10/03 12:36:17;;;;;;;7.47;1.70;;;;;;;17.98;75.15;102598.13;5057364;28;20041;-69
2022/10/03 12:38:48;;;;;;;4.63;1.77;;;;;;;17.83;76.05;102602.72;5060409;28;20033;-68
2022/10/03 12:41:51;;;;;;;4.25;1.50;;;;;;;18.01;75.11;102603.31;5057598;28;20040;-70
2022/10/03 12:44:37;;;;;;;9.82;2.63;;;;;;;18.11;75.24;102592.75;5061685;28;20560;-70
2022/10/03 12:47:25;;;;;;;6.03;1.88;;;;;;;17.93;75.95;102591.31;5043079;28;20041;-68
2022/10/03 12:49:50;;;;;;;8.60;2.42;;;;;;;18.23;76.43;102591.94;5049243;28;20521;-69
2022/10/03 12:52:27;;;;;;;9.35;2.90;;;;;;;17.96;74.73;102585.69;5055896;28;20078;-67
2022/10/03 12:55:22;;;;;;;13.23;2.72;;;;;;;18.13;77.46;102589.97;5041951;28;20045;-68